Time;durP1;ratioP1;P1;durP2;ratioP2;P2;SDS_P1;SDS_P2;PMS_P1;PMS_P2;Temp;Humidity;BMP_temperature;BMP_pressure;BME280_temperature;BME280_humidity;BME280_pressure;Samples;Min_cycle;Max_cycle;Signal;HPM_P1;HPM_P2
2023/12/19 05:46:13;;;;;;;;;;;;;;;4.57;100.00;100782.16;108984;1279;22540;-53
2023/12/19 05:48:40;;;;;;;;;;;;;;;4.55;100.00;100785.20;107650;1269;22525;-52
2023/12/19 05:51:07;;;;;;;;;;;;;;;4.54;100.00;100783.80;107734;1279;22517;-53
2023/12/19 05:53:35;;;;;;;;;;;;;;;4.53;100.00;100781.33;107913;1269;26572;-49
2023/12/19 05:56:01;;;;;;;;;;;;;;;4.52;100.00;100780.08;108059;1271;23297;-48
2023/12/19 05:58:28;;;;;;;;;;;;;;;4.52;100.00;100776.79;107944;1272;22534;-47
2023/12/19 06:00:55;;;;;;;;;;;;;;;4.51;100.00;100779.04;108111;1269;25061;-55
2023/12/19 06:03:23;;;;;;;;;;;;;;;4.52;100.00;100782.70;108718;1274;22515;-53
2023/12/19 06:05:49;;;;;;;;;;;;;;;4.53;100.00;100786.88;108886;1278;22514;-53
2023/12/19 06:08:17;;;;;;;;;;;;;;;4.55;100.00;100786.92;107748;1270;22518;-48
2023/12/19 06:10:46;;;;;;;;;;;;;;;4.56;100.00;100783.84;108874;1279;22554;-52
2023/12/19 06:13:13;;;;;;;;;;;;;;;4.56;100.00;100796.10;110030;1260;22954;-52
2023/12/19 06:15:40;;;;;;;;;;;;;;;4.56;100.00;100803.00;109967;1267;23156;-52
2023/12/19 06:18:06;;;;;;;;;;;;;;;4.57;100.00;100797.52;109987;1279;22459;-52
2023/12/19 06:20:34;;;;;;;;;;;;;;;4.59;100.00;100795.36;109929;1269;22507;-53
2023/12/19 06:23:01;;;;;;;;;;;;;;;4.61;100.00;100785.91;109835;1265;22475;-47
2023/12/19 06:25:28;;;;;;;;;;;;;;;4.64;100.00;100774.94;109800;1270;22453;-47
2023/12/19 06:27:56;;;;;;;;;;;;;;;4.66;100.00;100762.58;109798;1273;22516;-53
2023/12/19 06:30:23;;;;;;;;;;;;;;;4.67;100.00;100749.63;109373;1270;22484;-53
2023/12/19 06:32:58;;;;;;;;;;;;;;;4.67;100.00;100752.05;109249;1275;23025;-47
2023/12/19 06:35:27;;;;;;;;;;;;;;;4.67;100.00;100752.23;109726;1274;23251;-47
2023/12/19 06:37:54;;;;;;;;;;;;;;;4.67;100.00;100751.54;109714;1269;23165;-47
2023/12/19 06:40:31;;;;;;;;;;;;;;;4.67;100.00;100753.09;109415;1272;22501;-53
2023/12/19 06:43:02;;;;;;;;;;;;;;;4.69;100.00;100759.20;108799;1275;22485;-47
2023/12/19 06:45:31;;;;;;;;;;;;;;;4.73;100.00;100778.16;109349;1275;22502;-53
2023/12/19 06:48:05;;;;;;;;;;;;;;;4.76;100.00;100786.56;109808;1269;22991;-47
2023/12/19 06:50:32;;;;;;;;;;;;;;;4.80;100.00;100788.23;109554;1272;22499;-52
2023/12/19 06:53:00;;;;;;;;;;;;;;;4.85;100.00;100789.40;109415;1270;22508;-49
2023/12/19 06:55:30;;;;;;;;;;;;;;;4.90;100.00;100791.64;109260;1275;24173;-46
2023/12/19 06:57:57;;;;;;;;;;;;;;;4.94;100.00;100789.89;109885;1275;22525;-46
2023/12/19 07:00:24;;;;;;;;;;;;;;;4.97;100.00;100786.69;108844;1273;23155;-47
2023/12/19 07:02:51;;;;;;;;;;;;;;;5.01;100.00;100788.19;109104;1262;22547;-53
2023/12/19 07:05:18;;;;;;;;;;;;;;;5.03;100.00;100782.72;109748;1272;22450;-53
2023/12/19 07:07:47;;;;;;;;;;;;;;;5.05;100.00;100782.95;109492;1268;22531;-46
2023/12/19 07:10:14;;;;;;;;;;;;;;;5.03;100.00;100783.91;109785;1273;23451;-53
2023/12/19 07:12:41;;;;;;;;;;;;;;;5.03;100.00;100791.19;109097;1269;23806;-47
2023/12/19 07:15:10;;;;;;;;;;;;;;;5.05;100.00;100786.92;109110;1273;23105;-46
2023/12/19 07:17:39;;;;;;;;;;;;;;;5.05;100.00;100775.19;109478;1275;22555;-47
2023/12/19 07:20:07;;;;;;;;;;;;;;;5.04;100.00;100770.45;109235;1273;23378;-54
2023/12/19 07:22:34;;;;;;;;;;;;;;;5.04;100.00;100764.44;109327;1277;22498;-53
2023/12/19 07:25:02;;;;;;;;;;;;;;;5.06;100.00;100763.98;109711;1269;22465;-53
2023/12/19 07:27:30;;;;;;;;;;;;;;;5.08;100.00;100767.81;109669;1268;22578;-53
2023/12/19 07:30:00;;;;;;;;;;;;;;;5.10;100.00;100765.80;109740;1273;22450;-47
2023/12/19 07:32:27;;;;;;;;;;;;;;;5.11;100.00;100766.70;109771;1275;23235;-47
2023/12/19 07:34:53;;;;;;;;;;;;;;;5.10;100.00;100769.08;109561;1271;22466;-47
2023/12/19 07:37:20;;;;;;;;;;;;;;;5.07;100.00;100769.36;109565;1273;23599;-48
2023/12/19 07:39:47;;;;;;;;;;;;;;;5.07;100.00;100765.02;109589;1272;22620;-46
2023/12/19 07:42:13;;;;;;;;;;;;;;;5.07;100.00;100766.06;109721;1273;22634;-46
2023/12/19 07:44:41;;;;;;;;;;;;;;;5.08;100.00;100764.52;109419;1272;22490;-47
2023/12/19 07:47:09;;;;;;;;;;;;;;;5.08;100.00;100756.92;109559;1273;22582;-48
2023/12/19 07:49:41;;;;;;;;;;;;;;;5.10;100.00;100751.63;109358;1281;22494;-53
2023/12/19 07:52:08;;;;;;;;;;;;;;;5.12;100.00;100750.46;109942;1272;23240;-53
2023/12/19 07:54:36;;;;;;;;;;;;;;;5.12;100.00;100751.33;109643;1268;23323;-52
2023/12/19 07:57:09;;;;;;;;;;;;;;;5.14;100.00;100748.10;109438;1274;22746;-47
2023/12/19 07:59:37;;;;;;;;;;;;;;;5.17;100.00;100749.59;108595;1271;22457;-47
2023/12/19 08:02:09;;;;;;;;;;;;;;;5.20;100.00;100753.48;108657;1277;22507;-49
2023/12/19 08:04:37;;;;;;;;;;;;;;;5.24;100.00;100756.86;108525;1273;23981;-53
2023/12/19 08:07:04;;;;;;;;;;;;;;;5.27;100.00;100756.45;109526;1272;23309;-47
2023/12/19 08:09:30;;;;;;;;;;;;;;;5.30;100.00;100750.83;109567;1272;22571;-47
2023/12/19 08:11:57;;;;;;;;;;;;;;;5.32;100.00;100745.16;109812;1273;23415;-52
2023/12/19 08:14:24;;;;;;;;;;;;;;;5.31;100.00;100739.96;109286;1276;22572;-47
2023/12/19 08:17:15;;;;;;;;;;;;;;;5.30;100.00;100743.74;108721;1273;22518;-48
2023/12/19 08:19:51;;;;;;;;;;;;;;;5.29;100.00;100736.27;109095;1276;22533;-46
2023/12/19 08:22:18;;;;;;;;;;;;;;;5.27;100.00;100729.11;109389;1273;22580;-51
2023/12/19 08:24:44;;;;;;;;;;;;;;;5.27;100.00;100736.36;109607;1275;22781;-47
2023/12/19 08:27:11;;;;;;;;;;;;;;;5.23;100.00;100736.97;109936;1272;22699;-47
2023/12/19 08:29:37;;;;;;;;;;;;;;;5.22;100.00;100733.46;109894;1278;22450;-46
2023/12/19 08:32:04;;;;;;;;;;;;;;;5.24;100.00;100736.63;109773;1273;23475;-53
2023/12/19 08:34:31;;;;;;;;;;;;;;;5.24;100.00;100737.33;109774;1279;23135;-46
2023/12/19 08:36:58;;;;;;;;;;;;;;;5.24;100.00;100733.17;109847;1275;22458;-47
2023/12/19 08:39:24;;;;;;;;;;;;;;;5.21;100.00;100728.61;109834;1277;22428;-47
2023/12/19 08:41:51;;;;;;;;;;;;;;;5.21;100.00;100725.98;109825;1279;22619;-47
2023/12/19 08:44:18;;;;;;;;;;;;;;;5.21;100.00;100731.55;109741;1279;23010;-47
2023/12/19 08:46:56;;;;;;;;;;;;;;;5.22;100.00;100734.50;109497;1279;22500;-54
2023/12/19 08:49:33;;;;;;;;;;;;;;;5.20;100.00;100730.98;109247;1273;22520;-46
2023/12/19 08:52:09;;;;;;;;;;;;;;;5.20;100.00;100719.93;109168;1279;23007;-53
2023/12/19 08:54:36;;;;;;;;;;;;;;;5.21;100.00;100710.44;109553;1279;23009;-54
2023/12/19 08:57:08;;;;;;;;;;;;;;;5.22;100.00;100701.30;109395;1274;22535;-46
2023/12/19 08:59:51;;;;;;;;;;;;;;;5.23;100.00;100686.98;108805;1278;23883;-46
2023/12/19 09:02:17;;;;;;;;;;;;;;;5.24;100.00;100683.90;109352;1279;22716;-45
2023/12/19 09:04:44;;;;;;;;;;;;;;;5.23;100.00;100680.58;109394;1272;22513;-52
2023/12/19 09:07:11;;;;;;;;;;;;;;;5.21;100.00;100676.69;108946;1271;22817;-54
2023/12/19 09:09:39;;;;;;;;;;;;;;;5.20;100.00;100676.48;109629;1272;22466;-46
2023/12/19 09:12:17;;;;;;;;;;;;;;;5.20;100.00;100680.48;109468;1276;22606;-47
2023/12/19 09:14:47;;;;;;;;;;;;;;;5.21;100.00;100686.73;108180;1279;23073;-47
2023/12/19 09:17:18;;;;;;;;;;;;;;;5.20;100.00;100692.06;109354;1279;22530;-48
2023/12/19 09:19:59;;;;;;;;;;;;;;;5.17;100.00;100697.88;108353;1273;25255;-53
2023/12/19 09:22:40;;;;;;;;;;;;;;;5.14;100.00;100706.77;108966;1278;22536;-54
2023/12/19 09:25:14;;;;;;;;;;;;;;;5.13;100.00;100700.70;109316;1273;22589;-47
2023/12/19 09:27:45;;;;;;;;;;;;;;;5.15;100.00;100695.38;109456;1273;22666;-52
2023/12/19 09:30:14;;;;;;;;;;;;;;;5.16;100.00;100680.56;109232;1273;23056;-53
2023/12/19 09:32:41;;;;;;;;;;;;;;;5.15;100.00;100665.47;108856;1274;23302;-52
2023/12/19 09:35:10;;;;;;;;;;;;;;;5.13;100.00;100663.86;109377;1267;22491;-47
2023/12/19 09:37:44;;;;;;;;;;;;;;;5.08;100.00;100668.75;109734;1275;22476;-52
2023/12/19 09:40:18;;;;;;;;;;;;;;;5.06;100.00;100668.17;109649;1264;22465;-47
2023/12/19 09:42:45;;;;;;;;;;;;;;;5.05;100.00;100664.70;109872;1274;22425;-47
2023/12/19 09:45:16;;;;;;;;;;;;;;;5.03;100.00;100663.23;108889;1278;22528;-48
2023/12/19 09:47:56;;;;;;;;;;;;;;;5.01;100.00;100659.74;109783;1270;22598;-47
2023/12/19 09:50:23;;;;;;;;;;;;;;;5.00;100.00;100647.43;109367;1274;22526;-47
2023/12/19 09:52:50;;;;;;;;;;;;;;;4.99;100.00;100646.03;109171;1275;22647;-46
2023/12/19 09:55:17;;;;;;;;;;;;;;;4.98;100.00;100639.61;109335;1279;22880;-46
2023/12/19 09:57:44;;;;;;;;;;;;;;;4.96;100.00;100633.83;108659;1270;25553;-47
2023/12/19 10:00:11;;;;;;;;;;;;;;;4.94;100.00;100638.45;109904;1269;22463;-53
2023/12/19 10:02:39;;;;;;;;;;;;;;;4.91;100.00;100635.75;109691;1274;22486;-47
2023/12/19 10:05:07;;;;;;;;;;;;;;;4.90;100.00;100629.49;109678;1279;22529;-52
2023/12/19 10:07:34;;;;;;;;;;;;;;;4.87;100.00;100629.79;109234;1279;23417;-52
2023/12/19 10:10:03;;;;;;;;;;;;;;;4.87;100.00;100632.19;109798;1274;23245;-46
2023/12/19 10:12:31;;;;;;;;;;;;;;;4.87;100.00;100638.94;109809;1273;22962;-53
2023/12/19 10:15:13;;;;;;;;;;;;;;;4.87;100.00;100642.59;109577;1277;22547;-46
2023/12/19 10:18:17;;;;;;;;;;;;;;;4.88;100.00;100646.40;108912;1280;22476;-47
2023/12/19 10:21:11;;;;;;;;;;;;;;;4.88;100.00;100629.29;109645;1273;22484;-47
2023/12/19 10:23:38;;;;;;;;;;;;;;;4.87;100.00;100614.73;109725;1274;23651;-47
2023/12/19 10:26:05;;;;;;;;;;;;;;;4.85;100.00;100616.91;109514;1273;22499;-47
2023/12/19 10:28:32;;;;;;;;;;;;;;;4.82;100.00;100607.69;109758;1273;22455;-53
2023/12/19 10:31:12;;;;;;;;;;;;;;;4.81;100.00;100595.73;109177;1273;22575;-54
2023/12/19 10:33:49;;;;;;;;;;;;;;;4.82;100.00;100601.29;109892;1279;23206;-53
2023/12/19 10:36:24;;;;;;;;;;;;;;;4.82;100.00;100593.50;109678;1273;22717;-51
2023/12/19 10:38:51;;;;;;;;;;;;;;;4.82;100.00;100582.96;108931;1270;535730;-50
2023/12/19 10:41:27;;;;;;;;;;;;;;;4.84;100.00;100575.75;109199;1277;22542;-52
2023/12/19 10:43:56;;;;;;;;;;;;;;;4.84;100.00;100565.21;108762;1273;23201;-54
2023/12/19 10:46:25;;;;;;;;;;;;;;;4.85;100.00;100552.61;108021;1277;23278;-52
2023/12/19 10:48:55;;;;;;;;;;;;;;;4.84;100.00;100546.21;109800;1272;22502;-52
2023/12/19 10:51:35;;;;;;;;;;;;;;;4.84;100.00;100537.73;109825;1273;22565;-52
2023/12/19 10:54:09;;;;;;;;;;;;;;;4.83;100.00;100538.40;109946;1272;22490;-52
2023/12/19 10:56:59;;;;;;;;;;;;;;;4.79;100.00;100539.15;109946;1272;23292;-47
2023/12/19 10:59:32;;;;;;;;;;;;;;;4.72;100.00;100546.74;109511;1272;22518;-47
2023/12/19 11:02:04;;;;;;;;;;;;;;;4.67;100.00;100551.79;109337;1273;22539;-52
2023/12/19 11:04:34;;;;;;;;;;;;;;;4.66;100.00;100549.17;109230;1273;22588;-53
2023/12/19 11:07:02;;;;;;;;;;;;;;;4.66;100.00;100555.55;109558;1270;22502;-48
2023/12/19 11:09:33;;;;;;;;;;;;;;;4.66;100.00;100564.55;109276;1272;22491;-46
2023/12/19 11:12:01;;;;;;;;;;;;;;;4.67;100.00;100559.38;108842;1274;23391;-46
2023/12/19 11:14:35;;;;;;;;;;;;;;;4.68;100.00;100551.64;108408;1277;25475;-52
2023/12/19 11:17:08;;;;;;;;;;;;;;;4.69;100.00;100561.16;109391;1273;23360;-46
2023/12/19 11:19:44;;;;;;;;;;;;;;;4.70;100.00;100561.75;109295;1273;23736;-53
2023/12/19 11:22:31;;;;;;;;;;;;;;;4.73;100.00;100568.88;109445;1271;22534;-52
2023/12/19 11:25:03;;;;;;;;;;;;;;;4.75;100.00;100571.90;108736;1273;22726;-47
2023/12/19 11:27:36;;;;;;;;;;;;;;;4.78;100.00;100576.28;109528;1272;23305;-46
2023/12/19 11:30:03;;;;;;;;;;;;;;;4.79;100.00;100573.03;109154;1272;22530;-52
2023/12/19 11:32:30;;;;;;;;;;;;;;;4.81;100.00;100561.67;109647;1280;23001;-52
2023/12/19 11:35:12;;;;;;;;;;;;;;;4.80;100.00;100552.67;109146;1273;22556;-54
2023/12/19 11:37:43;;;;;;;;;;;;;;;4.78;100.00;100536.19;109376;1272;22539;-53
2023/12/19 11:40:18;;;;;;;;;;;;;;;4.76;100.00;100534.60;109225;1269;22564;-53
2023/12/19 11:42:45;;;;;;;;;;;;;;;4.77;100.00;100529.60;109042;1275;23218;-52
2023/12/19 11:45:15;;;;;;;;;;;;;;;4.77;100.00;100533.95;108944;1272;22535;-53
2023/12/19 11:47:56;;;;;;;;;;;;;;;4.78;100.00;100527.90;109744;1272;23098;-54
2023/12/19 11:50:39;;;;;;;;;;;;;;;4.77;100.00;100524.58;108498;1275;22537;-53
2023/12/19 11:53:06;;;;;;;;;;;;;;;4.75;100.00;100520.05;108854;1279;22489;-53
2023/12/19 11:55:33;;;;;;;;;;;;;;;4.74;100.00;100520.35;108074;1272;24202;-50
2023/12/19 11:58:09;;;;;;;;;;;;;;;4.74;100.00;100515.34;108564;1270;22578;-52
2023/12/19 12:00:37;;;;;;;;;;;;;;;4.73;100.00;100512.73;109505;1272;23083;-52
2023/12/19 12:03:11;;;;;;;;;;;;;;;4.70;100.00;100506.75;109797;1272;25275;-56
2023/12/19 12:05:39;;;;;;;;;;;;;;;4.69;100.00;100498.94;109270;1272;22517;-52
2023/12/19 12:08:06;;;;;;;;;;;;;;;4.69;100.00;100487.54;109765;1272;22464;-52
2023/12/19 12:10:37;;;;;;;;;;;;;;;4.69;100.00;100481.84;109353;1272;22646;-51
2023/12/19 12:13:04;;;;;;;;;;;;;;;4.71;100.00;100474.33;109698;1278;23010;-58
2023/12/19 12:15:33;;;;;;;;;;;;;;;4.72;100.00;100476.23;108971;1276;23070;-57
2023/12/19 12:18:01;;;;;;;;;;;;;;;4.72;100.00;100480.20;109456;1279;23354;-50
2023/12/19 12:20:33;;;;;;;;;;;;;;;4.73;100.00;100470.40;109444;1279;22480;-53
2023/12/19 12:23:03;;;;;;;;;;;;;;;4.76;100.00;100460.45;109819;1273;22511;-54
2023/12/19 12:25:33;;;;;;;;;;;;;;;4.81;100.00;100461.08;108949;1279;22591;-53
2023/12/19 12:28:07;;;;;;;;;;;;;;;4.83;100.00;100464.44;109183;1272;22489;-45
2023/12/19 12:30:34;;;;;;;;;;;;;;;4.86;100.00;100465.52;109625;1272;22528;-52
2023/12/19 12:33:03;;;;;;;;;;;;;;;4.87;100.00;100457.24;109625;1274;22498;-53
2023/12/19 12:35:34;;;;;;;;;;;;;;;4.87;100.00;100444.99;109401;1278;22580;-47
2023/12/19 12:38:07;;;;;;;;;;;;;;;4.89;100.00;100442.45;109539;1272;22816;-52
2023/12/19 12:40:34;;;;;;;;;;;;;;;4.90;100.00;100438.52;109715;1272;22490;-53
2023/12/19 12:43:20;;;;;;;;;;;;;;;4.93;100.00;100441.33;109706;1275;22520;-45
2023/12/19 12:45:47;;;;;;;;;;;;;;;4.94;100.00;100443.10;109939;1273;23296;-52
2023/12/19 12:48:14;;;;;;;;;;;;;;;4.93;100.00;100443.42;109178;1273;22482;-46
2023/12/19 12:50:41;;;;;;;;;;;;;;;4.94;100.00;100445.36;109428;1272;22503;-47
2023/12/19 12:53:12;;;;;;;;;;;;;;;4.95;100.00;100437.25;109101;1272;23385;-48
2023/12/19 12:55:39;;;;;;;;;;;;;;;4.95;100.00;100428.45;109673;1273;22491;-48
2023/12/19 12:58:06;;;;;;;;;;;;;;;4.96;100.00;100426.89;109886;1279;23251;-47
2023/12/19 13:00:33;;;;;;;;;;;;;;;4.94;100.00;100425.14;109872;1273;22429;-47
2023/12/19 13:03:00;;;;;;;;;;;;;;;4.94;100.00;100424.44;109845;1275;22438;-46
2023/12/19 13:05:27;;;;;;;;;;;;;;;4.94;100.00;100427.73;109780;1279;23291;-47
2023/12/19 13:07:55;;;;;;;;;;;;;;;4.97;100.00;100435.90;109864;1273;23276;-48
2023/12/19 13:10:21;;;;;;;;;;;;;;;4.96;100.00;100437.80;109869;1267;23484;-47
2023/12/19 13:12:48;;;;;;;;;;;;;;;4.97;100.00;100441.27;109928;1272;22448;-48
2023/12/19 13:15:15;;;;;;;;;;;;;;;4.97;100.00;100438.50;109862;1267;22482;-54
2023/12/19 13:17:42;;;;;;;;;;;;;;;4.99;100.00;100430.42;109839;1279;23298;-46
2023/12/19 13:20:10;;;;;;;;;;;;;;;5.00;100.00;100430.64;109835;1272;22474;-54
2023/12/19 13:22:37;;;;;;;;;;;;;;;5.00;100.00;100438.25;109826;1270;22481;-54
2023/12/19 13:25:04;;;;;;;;;;;;;;;5.01;100.00;100439.98;109741;1272;23235;-53
2023/12/19 13:27:31;;;;;;;;;;;;;;;5.01;100.00;100447.27;109812;1278;23474;-53
2023/12/19 13:30:00;;;;;;;;;;;;;;;5.00;100.00;100453.30;109885;1278;23006;-53
2023/12/19 13:32:26;;;;;;;;;;;;;;;5.01;100.00;100444.83;109872;1278;22990;-53
2023/12/19 13:34:54;;;;;;;;;;;;;;;5.01;100.00;100437.92;109898;1279;22463;-53
2023/12/19 13:37:21;;;;;;;;;;;;;;;5.02;100.00;100440.19;109918;1272;22444;-53
2023/12/19 13:39:48;;;;;;;;;;;;;;;5.03;100.00;100437.44;109941;1280;22498;-54
2023/12/19 13:42:15;;;;;;;;;;;;;;;5.04;100.00;100436.44;110001;1279;23363;-53
2023/12/19 13:44:41;;;;;;;;;;;;;;;5.06;100.00;100428.36;109903;1279;23265;-47
2023/12/19 13:47:08;;;;;;;;;;;;;;;5.06;100.00;100417.13;109855;1279;23494;-48
2023/12/19 13:49:35;;;;;;;;;;;;;;;5.06;100.00;100412.10;109940;1278;22452;-46
2023/12/19 13:52:02;;;;;;;;;;;;;;;5.05;100.00;100407.25;110005;1279;22446;-46
2023/12/19 13:54:29;;;;;;;;;;;;;;;5.06;100.00;100400.00;109936;1279;22442;-47
2023/12/19 13:56:56;;;;;;;;;;;;;;;5.06;100.00;100389.80;109921;1280;22415;-47
2023/12/19 13:59:23;;;;;;;;;;;;;;;5.05;100.00;100401.20;109422;1279;22528;-55
2023/12/19 14:01:51;;;;;;;;;;;;;;;5.04;100.00;100408.42;109875;1275;22515;-54
2023/12/19 14:04:20;;;;;;;;;;;;;;;5.04;100.00;100413.45;109941;1275;22992;-54
2023/12/19 14:06:47;;;;;;;;;;;;;;;5.05;100.00;100412.09;110010;1279;23233;-54
2023/12/19 14:09:19;;;;;;;;;;;;;;;5.05;100.00;100416.25;109983;1279;22464;-53
2023/12/19 14:11:45;;;;;;;;;;;;;;;5.05;100.00;100423.16;110009;1279;22436;-53
2023/12/19 14:14:12;;;;;;;;;;;;;;;5.06;100.00;100421.63;110034;1279;22417;-53
2023/12/19 14:16:39;;;;;;;;;;;;;;;5.07;100.00;100423.54;109991;1279;23307;-53
2023/12/19 14:19:06;;;;;;;;;;;;;;;5.09;100.00;100417.52;110040;1279;23210;-53
2023/12/19 14:21:33;;;;;;;;;;;;;;;5.10;100.00;100412.38;109941;1279;23112;-47
2023/12/19 14:24:00;;;;;;;;;;;;;;;5.11;100.00;100411.20;109264;1279;22510;-53
2023/12/19 14:26:27;;;;;;;;;;;;;;;5.12;100.00;100415.70;108327;1279;25316;-47
2023/12/19 14:28:57;;;;;;;;;;;;;;;5.11;100.00;100404.63;109246;1268;22488;-46
2023/12/19 14:31:23;;;;;;;;;;;;;;;5.11;100.00;100400.98;110137;1279;22446;-48
2023/12/19 14:33:50;;;;;;;;;;;;;;;5.10;100.00;100404.94;109744;1279;25326;-48
2023/12/19 14:36:17;;;;;;;;;;;;;;;5.11;100.00;100395.79;108102;1279;22519;-49
2023/12/19 14:38:45;;;;;;;;;;;;;;;5.10;100.00;100390.92;107595;1279;24009;-54
2023/12/19 14:41:12;;;;;;;;;;;;;;;5.08;100.00;100385.36;109463;1279;24189;-45
2023/12/19 14:43:39;;;;;;;;;;;;;;;5.07;100.00;100376.35;108647;1279;22535;-47
2023/12/19 14:46:05;;;;;;;;;;;;;;;5.06;100.00;100370.80;107055;1266;22521;-53
2023/12/19 14:48:33;;;;;;;;;;;;;;;5.06;100.00;100369.94;107199;1279;25457;-54
2023/12/19 14:51:00;;;;;;;;;;;;;;;5.06;100.00;100360.42;107331;1279;22520;-49
2023/12/19 14:53:27;;;;;;;;;;;;;;;5.06;100.00;100360.42;107377;1279;25386;-46
2023/12/19 14:55:54;;;;;;;;;;;;;;;5.05;100.00;100357.62;106864;1279;22508;-55
2023/12/19 14:58:21;;;;;;;;;;;;;;;5.03;100.00;100362.77;106935;1279;26484;-48
2023/12/19 15:00:49;;;;;;;;;;;;;;;5.02;100.00;100359.63;107162;1279;22944;-47
2023/12/19 15:03:21;;;;;;;;;;;;;;;5.01;100.00;100362.54;107175;1279;25299;-54
2023/12/19 15:05:48;;;;;;;;;;;;;;;5.01;100.00;100361.67;106862;1279;23264;-47
2023/12/19 15:08:16;;;;;;;;;;;;;;;5.01;100.00;100363.41;107216;1279;22632;-56
2023/12/19 15:10:43;;;;;;;;;;;;;;;5.02;100.00;100360.32;106945;1270;22590;-55
2023/12/19 15:13:10;;;;;;;;;;;;;;;5.02;100.00;100361.52;107620;1279;22982;-53
2023/12/19 15:15:37;;;;;;;;;;;;;;;5.01;100.00;100359.77;109076;1279;23168;-45
2023/12/19 15:18:04;;;;;;;;;;;;;;;4.99;100.00;100355.41;107671;1279;22588;-48
